createdAt,value
2018-08-19T00:00:52.943Z,6.60
2018-08-19T00:03:22.192Z,6.90
2018-08-19T00:05:51.401Z,6.37
2018-08-19T00:08:20.435Z,5.80
2018-08-19T00:11:09.462Z,6.33
2018-08-19T00:13:41.254Z,5.20
2018-08-19T00:16:13.094Z,5.40
2018-08-19T00:18:42.193Z,5.83
2018-08-19T00:21:12.379Z,4.73
2018-08-19T00:23:46.895Z,5.07
2018-08-19T00:26:16.252Z,5.10
2018-08-19T00:28:45.707Z,5.03
2018-08-19T00:31:14.788Z,4.63
2018-08-19T00:33:44.264Z,5.03
2018-08-19T00:36:26.726Z,4.80
2018-08-19T00:38:56.680Z,4.67
2018-08-19T00:41:26.289Z,5.20
2018-08-19T00:43:55.654Z,5.00
2018-08-19T00:46:30.914Z,4.50
2018-08-19T00:49:03.503Z,4.73
2018-08-19T00:51:32.906Z,5.37
2018-08-19T00:56:49.221Z,4.93
2018-08-19T00:59:20.547Z,5.50
2018-08-19T01:01:50.384Z,5.87
2018-08-19T01:04:20.170Z,5.43
2018-08-19T01:06:57.655Z,5.80
2018-08-19T01:09:33.421Z,5.83
2018-08-19T01:12:04.617Z,5.67
2018-08-19T01:14:38.575Z,6.30
2018-08-19T01:17:13.108Z,6.20
2018-08-19T01:19:44.570Z,6.50
2018-08-19T01:22:15.005Z,6.20
2018-08-19T01:24:44.445Z,6.40
2018-08-19T01:27:14.486Z,6.63
2018-08-19T01:29:45.279Z,6.73
2018-08-19T01:32:14.885Z,7.03
2018-08-19T01:34:46.401Z,6.27
2018-08-19T01:37:16.372Z,5.83
2018-08-19T01:39:46.061Z,6.03
2018-08-19T01:42:15.365Z,6.10
2018-08-19T01:44:44.440Z,5.60
2018-08-19T01:47:13.723Z,5.73
2018-08-19T01:49:44.040Z,6.20
2018-08-19T01:52:14.246Z,6.00
2018-08-19T01:54:43.465Z,6.27
2018-08-19T01:57:13.329Z,6.50
2018-08-19T01:59:43.835Z,6.00
2018-08-19T02:02:14.026Z,6.53
2018-08-19T02:04:48.976Z,6.30
2018-08-19T02:07:18.084Z,6.37
2018-08-19T02:09:58.035Z,6.33
2018-08-19T02:12:32.659Z,5.90
2018-08-19T02:15:07.039Z,6.07
2018-08-19T02:17:48.141Z,5.80
2018-08-19T02:20:17.172Z,5.80
2018-08-19T02:22:50.703Z,6.33
2018-08-19T02:25:20.028Z,6.17
2018-08-19T02:27:52.170Z,6.53
2018-08-19T02:30:21.556Z,5.57
2018-08-19T02:32:55.816Z,5.93
2018-08-19T02:35:25.306Z,5.60
2018-08-19T02:37:56.775Z,5.57
2018-08-19T02:40:33.005Z,6.40
2018-08-19T02:43:02.420Z,5.93
2018-08-19T02:45:31.907Z,6.10
2018-08-19T02:48:02.742Z,5.73
2018-08-19T02:50:31.852Z,5.67
2018-08-19T02:53:01.931Z,5.77
2018-08-19T02:55:31.301Z,5.97
2018-08-19T02:58:09.089Z,5.80
2018-08-19T03:00:38.477Z,5.87
2018-08-19T03:03:07.820Z,6.27
2018-08-19T03:05:37.471Z,5.70
2018-08-19T03:08:09.605Z,5.50
2018-08-19T03:10:38.618Z,5.57
2018-08-19T03:13:08.673Z,5.23
2018-08-19T03:15:38.089Z,5.30
2018-08-19T03:18:08.546Z,6.33
2018-08-19T03:20:37.642Z,6.03
2018-08-19T03:23:08.958Z,5.30
2018-08-19T03:25:39.837Z,5.37
2018-08-19T03:28:11.213Z,6.00
2018-08-19T03:30:47.607Z,6.40
2018-08-19T03:33:17.007Z,6.20
2018-08-19T03:35:46.458Z,6.27
2018-08-19T03:38:18.109Z,6.23
2018-08-19T03:40:47.448Z,5.47
2018-08-19T03:43:16.848Z,5.63
2018-08-19T03:45:46.129Z,6.83
2018-08-19T03:48:16.972Z,6.40
2018-08-19T03:50:46.035Z,5.80
2018-08-19T03:53:15.439Z,5.97
2018-08-19T03:55:45.521Z,5.70
2018-08-19T03:58:17.951Z,6.50
2018-08-19T04:00:47.334Z,6.97
2018-08-19T04:03:22.052Z,6.53
2018-08-19T04:05:56.125Z,6.20
2018-08-19T04:08:34.252Z,5.57
2018-08-19T04:11:07.884Z,6.03
2018-08-19T04:13:40.258Z,6.07
2018-08-19T04:16:11.006Z,6.23
2018-08-19T04:18:43.152Z,6.00
2018-08-19T04:21:16.873Z,6.33
2018-08-19T04:23:50.042Z,6.17
2018-08-19T04:26:19.471Z,6.43
2018-08-19T04:28:48.976Z,6.50
2018-08-19T04:31:23.331Z,6.53
2018-08-19T04:33:52.498Z,6.13
2018-08-19T04:36:23.449Z,6.60
2018-08-19T04:38:52.841Z,6.27
2018-08-19T04:41:22.790Z,6.83
2018-08-19T04:43:52.902Z,6.70
2018-08-19T04:46:22.408Z,6.97
2018-08-19T04:48:51.405Z,6.57
2018-08-19T04:51:20.344Z,7.00
2018-08-19T04:53:49.956Z,6.90
2018-08-19T04:56:20.081Z,6.90
2018-08-19T04:58:49.394Z,7.70
2018-08-19T05:01:19.486Z,7.00
2018-08-19T05:03:48.489Z,6.60
2018-08-19T05:06:17.605Z,7.63
2018-08-19T05:08:47.205Z,6.23
2018-08-19T05:11:16.493Z,6.60
2018-08-19T05:13:45.799Z,6.97
2018-08-19T05:16:15.747Z,7.33
2018-08-19T05:18:52.912Z,7.63
2018-08-19T05:21:23.826Z,7.43
2018-08-19T05:23:53.207Z,6.70
2018-08-19T05:26:24.346Z,7.87
2018-08-19T05:29:11.489Z,7.13
2018-08-19T05:31:50.504Z,7.20
2018-08-19T05:34:24.977Z,8.10
2018-08-19T05:36:54.284Z,7.67
2018-08-19T05:39:23.854Z,7.17
2018-08-19T05:42:04.601Z,7.60
2018-08-19T05:44:35.424Z,8.20
2018-08-19T05:47:05.944Z,7.30
2018-08-19T05:49:36.752Z,7.10
2018-08-19T05:52:11.463Z,7.27
2018-08-19T05:54:45.988Z,7.00
2018-08-19T05:57:17.524Z,7.03
2018-08-19T05:59:48.946Z,7.07
2018-08-19T06:02:22.485Z,6.33
2018-08-19T06:04:52.478Z,7.13
2018-08-19T06:07:22.350Z,7.10
2018-08-19T06:09:52.503Z,6.80
2018-08-19T06:12:22.000Z,6.77
2018-08-19T06:14:51.455Z,6.80
2018-08-19T06:17:20.762Z,6.33
2018-08-19T06:19:49.847Z,6.13
2018-08-19T06:22:19.844Z,6.57
2018-08-19T06:24:49.835Z,6.30
2018-08-19T06:27:19.766Z,6.33
2018-08-19T06:29:51.323Z,6.17
2018-08-19T06:32:25.739Z,6.47
2018-08-19T06:34:59.429Z,5.37
2018-08-19T06:37:28.926Z,5.57
2018-08-19T06:39:58.368Z,5.47
2018-08-19T06:42:27.718Z,5.60
2018-08-19T06:44:57.299Z,6.07
2018-08-19T06:47:26.979Z,4.97
2018-08-19T06:49:58.330Z,5.43
2018-08-19T06:52:28.619Z,4.73
2018-08-19T06:54:57.726Z,4.70
2018-08-19T06:57:29.104Z,4.57
2018-08-19T06:59:58.470Z,3.90
2018-08-19T07:02:31.582Z,4.40
2018-08-19T07:05:01.428Z,4.30
2018-08-19T07:07:30.677Z,3.90
2018-08-19T07:10:00.228Z,3.60
2018-08-19T07:12:29.429Z,3.30
2018-08-19T07:14:58.789Z,3.00
2018-08-19T07:17:28.230Z,3.20
2018-08-19T07:19:57.346Z,3.23
2018-08-19T07:22:26.392Z,3.03
2018-08-19T07:24:55.841Z,2.70
2018-08-19T07:27:25.211Z,2.73
2018-08-19T07:29:54.799Z,2.90
2018-08-19T07:32:24.049Z,2.87
2018-08-19T07:34:53.803Z,2.73
2018-08-19T07:37:23.310Z,3.00
2018-08-19T07:39:53.289Z,2.87
2018-08-19T07:42:22.740Z,3.03
2018-08-19T07:44:51.757Z,2.27
2018-08-19T07:47:21.559Z,2.23
2018-08-19T07:49:50.541Z,1.93
2018-08-19T07:52:20.878Z,2.03
2018-08-19T07:54:50.350Z,2.00
2018-08-19T07:57:28.335Z,1.70
2018-08-19T07:59:58.036Z,1.80
2018-08-19T08:02:30.038Z,2.27
2018-08-19T08:05:00.360Z,1.67
2018-08-19T08:10:08.889Z,1.37
2018-08-19T08:12:40.148Z,1.40
2018-08-19T08:15:12.447Z,1.60
2018-08-19T08:17:41.413Z,1.60
2018-08-19T08:20:10.897Z,1.40
2018-08-19T08:22:40.017Z,1.60
2018-08-19T08:25:11.479Z,2.10
2018-08-19T08:27:40.628Z,2.07
2018-08-19T08:30:14.190Z,1.93
2018-08-19T08:32:49.684Z,1.60
2018-08-19T08:35:20.227Z,1.10
2018-08-19T08:37:49.970Z,1.20
2018-08-19T08:40:19.693Z,1.10
2018-08-19T08:42:50.996Z,0.87
2018-08-19T08:45:28.162Z,0.83
2018-08-19T08:47:58.722Z,0.67
2018-08-19T08:50:28.009Z,0.53
2018-08-19T08:52:58.541Z,0.90
2018-08-19T08:55:28.708Z,0.83
2018-08-19T08:57:58.736Z,0.80
2018-08-19T09:00:29.225Z,1.13
2018-08-19T09:02:59.101Z,1.27
2018-08-19T09:05:28.164Z,0.80
2018-08-19T09:07:58.695Z,0.80
2018-08-19T09:10:27.810Z,0.87
2018-08-19T09:12:56.964Z,1.10
2018-08-19T09:15:26.061Z,1.27
2018-08-19T09:17:55.385Z,1.10
2018-08-19T09:20:25.415Z,1.90
2018-08-19T09:22:54.443Z,1.80
2018-08-19T09:25:23.990Z,2.50
2018-08-19T09:27:52.977Z,1.90
2018-08-19T09:30:32.599Z,2.30
2018-08-19T09:33:02.123Z,2.10
2018-08-19T09:35:37.156Z,2.27
2018-08-19T09:38:14.024Z,2.73
2018-08-19T09:40:44.385Z,2.73
2018-08-19T09:43:13.579Z,2.63
2018-08-19T09:45:42.984Z,2.23
2018-08-19T09:48:12.481Z,2.17
2018-08-19T09:50:42.240Z,2.30
2018-08-19T09:53:11.303Z,2.67
2018-08-19T09:55:48.227Z,2.37
2018-08-19T09:58:20.944Z,2.30
2018-08-19T10:00:56.140Z,2.07
2018-08-19T10:03:25.572Z,1.93
2018-08-19T10:05:55.253Z,3.50
2018-08-19T10:08:35.753Z,2.13
2018-08-19T10:11:06.113Z,2.53
2018-08-19T10:13:35.520Z,2.90
2018-08-19T10:16:05.380Z,2.50
2018-08-19T10:18:34.958Z,3.23
2018-08-19T10:21:14.168Z,3.10
2018-08-19T10:23:43.526Z,2.53
2018-08-19T10:26:12.566Z,4.30
2018-08-19T10:28:41.548Z,2.43
2018-08-19T10:31:17.853Z,3.03
2018-08-19T10:33:47.366Z,3.77
2018-08-19T10:36:17.043Z,3.50
2018-08-19T10:38:48.083Z,2.33
2018-08-19T10:44:08.514Z,3.00
2018-08-19T10:46:39.956Z,3.20
2018-08-19T10:49:09.583Z,2.67
2018-08-19T10:51:42.165Z,2.50
2018-08-19T10:54:11.160Z,1.77
2018-08-19T10:56:40.227Z,1.80
2018-08-19T10:59:09.412Z,1.73
2018-08-19T11:01:38.465Z,2.20
2018-08-19T11:04:07.461Z,1.83
2018-08-19T11:06:38.925Z,1.60
2018-08-19T11:09:08.061Z,1.70
2018-08-19T11:11:37.109Z,1.87
2018-08-19T11:14:09.510Z,1.70
2018-08-19T11:16:39.516Z,2.47
2018-08-19T11:19:10.484Z,2.67
2018-08-19T11:21:39.629Z,1.53
2018-08-19T11:24:15.829Z,1.60
2018-08-19T11:26:50.071Z,3.40
2018-08-19T11:29:20.914Z,4.27
2018-08-19T11:31:51.736Z,2.93
2018-08-19T11:34:20.798Z,2.27
2018-08-19T11:36:51.232Z,2.03
2018-08-19T11:39:20.476Z,1.80
2018-08-19T11:41:51.645Z,3.00
2018-08-19T11:44:21.540Z,3.10
2018-08-19T11:46:50.526Z,2.77
2018-08-19T11:49:20.308Z,2.10
2018-08-19T11:51:55.154Z,1.97
2018-08-19T11:54:25.012Z,2.90
2018-08-19T11:57:00.421Z,2.67
2018-08-19T11:59:35.412Z,2.00
2018-08-19T12:02:07.742Z,1.77
2018-08-19T12:04:37.645Z,2.80
2018-08-19T12:07:07.438Z,1.47
2018-08-19T12:09:36.949Z,1.87
2018-08-19T12:12:06.090Z,2.00
2018-08-19T12:14:36.764Z,2.43
2018-08-19T12:17:10.588Z,1.97
2018-08-19T12:19:44.061Z,1.47
2018-08-19T12:22:19.485Z,3.57
2018-08-19T12:24:52.700Z,1.80
2018-08-19T12:27:28.287Z,2.63
2018-08-19T12:30:17.767Z,2.83
2018-08-19T12:32:52.913Z,1.73
2018-08-19T12:35:26.967Z,1.93
2018-08-19T12:38:02.438Z,1.33
2018-08-19T12:40:40.768Z,1.20
2018-08-19T12:43:15.510Z,1.43
2018-08-19T12:45:52.967Z,1.37
2018-08-19T12:48:26.700Z,5.13
2018-08-19T12:51:06.767Z,2.23
2018-08-19T12:53:38.127Z,2.17
2018-08-19T12:56:10.578Z,1.67
2018-08-19T12:58:43.217Z,1.57
2018-08-19T13:01:16.601Z,3.30
2018-08-19T13:03:47.510Z,2.23
2018-08-19T13:06:18.991Z,2.03
2018-08-19T13:08:50.167Z,2.63
2018-08-19T13:11:22.665Z,3.37
2018-08-19T13:13:53.728Z,6.60
2018-08-19T13:16:33.804Z,1.73
2018-08-19T13:19:10.870Z,2.00
2018-08-19T13:21:42.443Z,1.90
2018-08-19T13:24:15.756Z,1.93
2018-08-19T13:26:48.402Z,2.13
2018-08-19T13:29:19.728Z,1.70
2018-08-19T13:31:54.989Z,1.77
2018-08-19T13:34:28.526Z,1.97
2018-08-19T13:37:00.365Z,2.43
2018-08-19T13:39:32.405Z,1.60
2018-08-19T13:42:03.124Z,4.97
2018-08-19T13:44:36.016Z,2.20
2018-08-19T13:47:14.540Z,2.30
2018-08-19T13:49:45.322Z,2.83
2018-08-19T13:52:15.856Z,2.17
2018-08-19T13:55:02.796Z,3.30
2018-08-19T13:57:32.326Z,2.37
2018-08-19T14:00:02.320Z,1.90
2018-08-19T14:02:31.781Z,4.63
2018-08-19T14:05:02.013Z,2.43
2018-08-19T14:07:31.360Z,2.80
2018-08-19T14:10:01.519Z,1.47
2018-08-19T14:12:31.406Z,3.07
2018-08-19T14:15:00.874Z,2.53
2018-08-19T14:17:30.224Z,2.40
2018-08-19T14:19:59.864Z,1.70
2018-08-19T14:22:29.893Z,1.80
2018-08-19T14:25:00.017Z,2.57
2018-08-19T14:27:30.268Z,1.70
2018-08-19T14:30:01.649Z,2.10
2018-08-19T14:32:34.912Z,1.90
2018-08-19T14:35:05.757Z,1.90
2018-08-19T14:37:35.980Z,1.50
2018-08-19T14:40:07.865Z,2.00
2018-08-19T14:42:37.269Z,1.60
2018-08-19T14:45:06.779Z,1.97
2018-08-19T14:47:36.095Z,1.83
2018-08-19T14:50:10.292Z,1.90
2018-08-19T14:52:39.288Z,2.00
2018-08-19T14:55:09.371Z,1.93
2018-08-19T14:57:38.657Z,1.80
2018-08-19T15:00:12.805Z,1.80
2018-08-19T15:02:42.159Z,2.27
2018-08-19T15:05:15.708Z,2.03
2018-08-19T15:07:46.212Z,2.30
2018-08-19T15:10:21.068Z,2.00
2018-08-19T15:12:50.823Z,2.80
2018-08-19T15:15:20.463Z,2.57
2018-08-19T15:17:55.422Z,2.37
2018-08-19T15:20:32.604Z,2.67
2018-08-19T15:23:12.906Z,2.40
2018-08-19T15:25:42.314Z,3.10
2018-08-19T15:28:11.344Z,2.43
2018-08-19T15:30:42.030Z,2.80
2018-08-19T15:33:12.444Z,2.40
2018-08-19T15:35:42.978Z,2.70
2018-08-19T15:38:13.229Z,2.53
2018-08-19T15:40:44.418Z,2.70
2018-08-19T15:43:14.022Z,2.87
2018-08-19T15:45:44.962Z,4.43
2018-08-19T15:48:15.633Z,3.27
2018-08-19T15:50:46.009Z,2.80
2018-08-19T15:53:18.540Z,4.63
2018-08-19T15:55:48.248Z,3.77
2018-08-19T15:58:17.203Z,2.70
2018-08-19T16:00:46.205Z,2.93
2018-08-19T16:03:15.243Z,3.33
2018-08-19T16:05:44.345Z,3.00
2018-08-19T16:08:13.341Z,3.07
2018-08-19T16:10:43.412Z,3.20
2018-08-19T16:13:13.165Z,3.33
2018-08-19T16:15:42.336Z,3.67
2018-08-19T16:18:11.636Z,3.97
2018-08-19T16:20:44.502Z,3.90
2018-08-19T16:23:20.661Z,4.40
2018-08-19T16:25:49.812Z,4.87
2018-08-19T16:28:19.975Z,4.13
2018-08-19T16:30:49.525Z,4.00
2018-08-19T16:33:19.827Z,4.13
2018-08-19T16:35:49.079Z,4.17
2018-08-19T16:38:18.818Z,3.60
2018-08-19T16:40:48.386Z,4.37
2018-08-19T16:43:18.635Z,5.17
2018-08-19T16:45:47.789Z,4.53
2018-08-19T16:48:18.101Z,4.30
2018-08-19T16:50:47.276Z,3.90
2018-08-19T16:53:16.186Z,3.77
2018-08-19T16:55:46.348Z,4.30
2018-08-19T16:58:15.458Z,4.03
2018-08-19T17:00:44.847Z,4.10
2018-08-19T17:03:27.482Z,4.60
2018-08-19T17:05:57.633Z,4.30
2018-08-19T17:08:27.260Z,4.80
2018-08-19T17:10:56.964Z,3.80
2018-08-19T17:13:26.312Z,4.10
2018-08-19T17:15:56.124Z,4.50
2018-08-19T17:18:25.928Z,4.33
2018-08-19T17:20:54.928Z,3.80
2018-08-19T17:23:30.398Z,4.00
2018-08-19T17:26:04.530Z,3.90
2018-08-19T17:28:33.671Z,3.80
2018-08-19T17:31:02.602Z,3.60
2018-08-19T17:33:32.312Z,3.60
2018-08-19T17:36:02.299Z,3.80
2018-08-19T17:38:34.669Z,3.77
2018-08-19T17:41:05.511Z,3.53
2018-08-19T17:43:39.992Z,3.30
2018-08-19T17:46:12.190Z,3.33
2018-08-19T17:48:42.332Z,3.43
2018-08-19T17:51:23.392Z,3.37
2018-08-19T17:53:52.328Z,3.50
2018-08-19T17:56:21.364Z,3.47
2018-08-19T17:58:50.796Z,3.67
2018-08-19T18:01:19.975Z,3.30
2018-08-19T18:03:49.005Z,3.80
2018-08-19T18:06:20.128Z,3.70
2018-08-19T18:08:50.689Z,3.70
2018-08-19T18:11:29.089Z,3.70
2018-08-19T18:13:58.114Z,3.60
2018-08-19T18:16:27.266Z,4.00
2018-08-19T18:18:56.724Z,3.60
2018-08-19T18:21:26.730Z,4.43
2018-08-19T18:23:55.735Z,5.03
2018-08-19T18:26:24.739Z,4.60
2018-08-19T18:28:53.737Z,4.83
2018-08-19T18:31:23.501Z,4.77
2018-08-19T18:33:59.580Z,5.30
2018-08-19T18:36:30.112Z,4.80
2018-08-19T18:38:59.589Z,5.40
2018-08-19T18:41:39.422Z,5.43
2018-08-19T18:44:10.245Z,4.53
2018-08-19T18:46:40.969Z,5.33
2018-08-19T18:49:13.307Z,5.10
2018-08-19T18:51:45.237Z,4.97
2018-08-19T18:54:21.976Z,5.00
2018-08-19T18:56:51.236Z,5.10
2018-08-19T18:59:20.612Z,5.43
2018-08-19T19:01:49.746Z,5.10
2018-08-19T19:04:18.724Z,5.43
2018-08-19T19:06:47.825Z,5.00
2018-08-19T19:09:17.647Z,5.80
2018-08-19T19:11:53.473Z,4.97
2018-08-19T19:14:22.999Z,5.83
2018-08-19T19:16:53.655Z,5.93
2018-08-19T19:19:23.265Z,5.23
2018-08-19T19:22:05.409Z,5.17
2018-08-19T19:24:41.707Z,5.40
2018-08-19T19:27:17.257Z,6.00
2018-08-19T19:30:00.802Z,5.20
2018-08-19T19:32:43.489Z,5.40
2018-08-19T19:35:36.829Z,6.07
2018-08-19T19:38:18.709Z,6.57
2018-08-19T19:40:47.962Z,6.40
2018-08-19T19:43:17.837Z,5.97
2018-08-19T19:45:51.325Z,6.20
2018-08-19T19:48:21.804Z,7.30
2018-08-19T19:50:51.433Z,6.63
2018-08-19T19:53:20.973Z,6.67
2018-08-19T19:55:51.983Z,6.20
2018-08-19T19:58:21.443Z,6.37
2018-08-19T20:00:56.493Z,6.30
2018-08-19T20:03:26.495Z,6.07
2018-08-19T20:05:56.660Z,6.33
2018-08-19T20:08:27.031Z,6.03
2018-08-19T20:13:53.634Z,6.07
2018-08-19T20:16:24.798Z,6.93
2018-08-19T20:18:54.704Z,6.87
2018-08-19T20:21:25.461Z,7.37
2018-08-19T20:23:56.501Z,7.60
2018-08-19T20:26:29.191Z,7.67
2018-08-19T20:29:01.228Z,8.10
2018-08-19T20:31:35.202Z,8.03
2018-08-19T20:34:07.029Z,8.67
2018-08-19T20:36:37.657Z,9.83
2018-08-19T20:39:10.011Z,8.60
2018-08-19T20:41:39.444Z,9.73
2018-08-19T20:44:09.477Z,10.10
2018-08-19T20:46:44.745Z,9.73
2018-08-19T20:49:17.323Z,9.20
2018-08-19T20:51:46.703Z,9.00
2018-08-19T20:54:18.312Z,9.80
2018-08-19T20:56:48.248Z,9.50
2018-08-19T20:59:26.016Z,9.37
2018-08-19T21:01:55.942Z,9.80
2018-08-19T21:04:30.938Z,10.03
2018-08-19T21:07:03.064Z,11.07
2018-08-19T21:09:34.506Z,10.73
2018-08-19T21:12:04.605Z,10.50
2018-08-19T21:14:46.480Z,11.90
2018-08-19T21:17:18.893Z,11.60
2018-08-19T21:20:03.700Z,10.77
2018-08-19T21:23:39.689Z,12.63
2018-08-19T21:26:20.441Z,11.97
2018-08-19T21:32:22.365Z,11.43
2018-08-19T21:34:54.311Z,11.43
2018-08-19T21:37:29.146Z,11.07
2018-08-19T21:40:00.063Z,11.30
2018-08-19T21:42:30.309Z,12.33
2018-08-19T21:45:02.165Z,10.93
2018-08-19T21:47:32.184Z,11.87
2018-08-19T21:50:01.669Z,10.63
2018-08-19T21:52:31.015Z,11.80
2018-08-19T21:55:00.148Z,11.63
2018-08-19T21:57:29.347Z,11.43
2018-08-19T21:59:59.639Z,12.00
2018-08-19T22:04:42.278Z,10.87
2018-08-19T22:07:12.087Z,11.23
2018-08-19T22:09:44.850Z,12.60
2018-08-19T22:12:14.544Z,12.97
2018-08-19T22:14:47.687Z,12.70
2018-08-19T22:17:16.908Z,12.77
2018-08-19T22:19:46.162Z,11.30
2018-08-19T22:22:15.466Z,12.50
2018-08-19T22:24:44.628Z,12.63
2018-08-19T22:27:17.463Z,12.13
2018-08-19T22:29:47.024Z,11.60
2018-08-19T22:32:15.991Z,12.87
2018-08-19T22:34:45.586Z,13.23
2018-08-19T22:37:14.816Z,12.70
2018-08-19T22:39:44.125Z,12.77
2018-08-19T22:42:13.346Z,14.20
2018-08-19T22:44:42.582Z,14.33
2018-08-19T22:47:12.185Z,14.23
2018-08-19T22:49:41.492Z,14.13
2018-08-19T22:52:19.490Z,13.80
2018-08-19T22:54:50.432Z,13.73
2018-08-19T22:57:28.040Z,14.57
2018-08-19T22:59:57.028Z,14.60
2018-08-19T23:02:26.384Z,15.20
2018-08-19T23:04:56.035Z,15.30
2018-08-19T23:07:25.067Z,14.67
2018-08-19T23:09:54.801Z,14.23
2018-08-19T23:12:24.028Z,14.63
2018-08-19T23:15:03.974Z,15.37
2018-08-19T23:17:32.963Z,13.87
2018-08-19T23:20:02.016Z,13.50
2018-08-19T23:22:30.949Z,15.73
2018-08-19T23:24:59.967Z,15.93
2018-08-19T23:27:28.944Z,16.20
2018-08-19T23:29:57.932Z,16.57
2018-08-19T23:32:26.834Z,17.70
2018-08-19T23:34:55.764Z,17.70
2018-08-19T23:37:25.365Z,19.07
2018-08-19T23:39:55.270Z,20.27
2018-08-19T23:42:24.956Z,19.43
2018-08-19T23:44:54.602Z,21.03
2018-08-19T23:47:24.029Z,21.50
2018-08-19T23:49:53.102Z,21.67
2018-08-19T23:52:22.044Z,20.80
2018-08-19T23:54:51.031Z,20.67
2018-08-19T23:57:20.766Z,17.67
2018-08-19T23:59:50.872Z,17.40
